This is the latest recevied weather packets stored in our database for station/object KA0WKG. If no packets are shown the sender has not sent any weather packets the latest 10 day(s).
| Time | Temp. | Humidity | Pressure | Rain* | Wind** | Luminosity | Snow |
|---|---|---|---|---|---|---|---|
| 1777801505 | 10.56° C | 45% | 1013.9 hPa | 0 mm | - | - | - |
| 1777800904 | 10.56° C | 46% | 1013.9 hPa | 0 mm | - | - | - |
| 1777799405 | 8.33° C | 53% | 1014 hPa | 0 mm | - | - | - |
| 1777797904 | 7.22° C | 60% | 1013.4 hPa | 0 mm | - | - | - |
| 1777797305 | 6.67° C | 60% | 1013.3 hPa | 0 mm | - | - | - |
| 1777796105 | 6.67° C | 61% | 1013.3 hPa | 0 mm | - | - | - |
| 1777795805 | 6.67° C | 60% | 1013.3 hPa | 0 mm | - | - | - |
| 1777793704 | 5.56° C | 64% | 1013.7 hPa | 0 mm | - | - | - |
| 1777793404 | 6.11° C | 64% | 1013.7 hPa | 0 mm | - | - | - |
| 1777792504 | 6.11° C | 63% | 1013.8 hPa | 0 mm | - | - | - |
| 1777791305 | 6.67° C | 61% | 1013.7 hPa | 0 mm | - | - | - |
| 1777786808 | 7.78° C | 55% | 1013.8 hPa | 0 mm | - | - | - |
| 1777784108 | 9.44° C | 50% | 1013.7 hPa | 0 mm | - | - | - |
| 1777781408 | 10° C | 49% | 1013.9 hPa | 0 mm | - | - | - |
| 1777778408 | 12.22° C | 42% | 1013.9 hPa | 0 mm | - | - | - |
| 1777777807 | 12.78° C | 39% | 1014 hPa | 0 mm | - | - | - |
| 1777777208 | 12.22° C | 39% | 1013.9 hPa | 0 mm | - | - | - |
| 1777775408 | 13.33° C | 41% | 1013.9 hPa | 0 mm | - | - | - |
| 1777774807 | 13.89° C | 39% | 1013.8 hPa | 0 mm | - | - | - |
| 1777774507 | 13.89° C | 37% | 1013.8 hPa | 0 mm | - | - | - |
| 1777773909 | 15° C | 35% | 1013.7 hPa | 0 mm | - | - | - |
| 1777771808 | 19.44° C | 26% | 1013.8 hPa | 0 mm | - | - | - |
| 1777770908 | 20.56° C | 23% | 1013.8 hPa | 0 mm | - | - | - |
| 1777770607 | 21.11° C | 22% | 1013.7 hPa | 0 mm | - | - | - |
| 1777767008 | 23.33° C | 17% | 1014.2 hPa | 0 mm | - | - | - |
* Rain latest hour (hover to see other rain measurements)
** Current wind speed in m/s (hover to see current wind gust speed)